Aérodrome :
LOGIN :

S'inscrire | Disclaimer

   EN    FR    IT 

 










Légende :    VFR   VFR Marginal   IFR   IFR Intensif   IFR Très Intensif
Visi : 
Plafond : 
>= 8 km
>= 3000ft
5 à 8 km
1000 à 3000 ft
1500m à 5 km
500 à 1000 ft
800 à 1500m
200 à 500 ft
< 800m
< 200 ft
Symboles :   Orages  Brouillard  Fortes neiges  Fortes précipitations  Vent > 20 kt
SIGMETs :   Divers  Orages  Givrage  Turbulence  Onde Orograph.  Cendres Volcan.







- Altitude de l'aérodrome : 659 ft
- Code IATA : LGG


EBLG - Liège

DERNIER METAR :
  • 171120Z 25008KT 5000 BR SCT004 BKN005 02/01 Q1024 NOSIG

METARs EXPIRÉS :
  • 171050Z 25008KT 3500 BR SCT002 BKN003 01/00 Q1024 BECMG 5000 BR
  • 171020Z 24009KT 1200 R22L/1800D R22R/1900D R04R/1300D BR SCT002 BKN002 01/00 Q1024 TEMPO 1200 BR BKN002
  • 170950Z 26008KT 1500 BR SCT002 BKN002 01/M00 Q1024 TEMPO 1200 BR BKN002
  • 170920Z 25010KT 200V260 2100 BR SCT003 BKN004 01/M00 Q1023 NOSIG
  • 170850Z 25006KT 5000 BR BKN005 01/M00 Q1023 NOSIG

TAF TAF EBLG
Valide du 17 à 12h jusqu'au 18 à 18h UTC


171107Z 1712/1818 23007KT 3000 BR SCT003 BKN005
BECMG 1712/1714 8000 NSW SCT012 SCT040
PROB30
TEMPO 1719/1721 4500 -RA -RASN
BECMG 1721/1723 SCT008 BKN012
TEMPO 1722/1801 20015G25KT 3000 RADZ BKN006
BECMG 1801/1803 27010KT SCT004 BKN006
BECMG 1806/1808 33009KT SCT007 BKN015
TEMPO 1808/1818 4000 -DZRA BKN007
Pas de NOTAMs connus pour ce terrain.



MET'MAP, la Météo Aéronautique d'un coup d'oeil ! - Copyright ORBIFLY Décembre 2007 - Disclaimer

ORBIFLY MET'MAP TEAM :

Programmation & Développement : Alexandra Zaïnal
Conception & Développement : Baudouin d'Aumeries
Co-Programmation & Développement : Marc-Olivier Méhu
Soutien technique & logistique : Manuel Goepfert

Contact : metmap@orbifly.com




SOURCES & CREDITS :

   NOAA